Aviation Digital Data Service (ADDS)

Output produced by METARs form (1916 UTC 18 June 2019)
found at http://www.aviationweather.gov/metar/data/
 
KABI 181852Z 18013KT 10SM SCT036 31/05 A2996 RMK AO2 SLP117 T03060050
KABI 181734Z 1818/1918 18011G18KT P6SM SCT050 BKN100 
     FM190100 18012KT P6SM VCTS BKN035CB 
     TEMPO 1902/1905 3SM TSRA BR BKN030CB 
     FM190500 16010KT P6SM SCT050 BKN250 
     FM191300 20013G22KT P6SM SCT250
       
KALI 181853Z AUTO 11009KT 10SM FEW039 34/23 A2993 RMK AO2 SLP133 T03440228
KALI 181728Z 1818/1918 14010KT P6SM SCT025 
     FM182100 12013G20KT P6SM SCT040 
     FM190100 14011KT P6SM SCT250 
     FM190900 16007KT 5SM BR SCT009 BKN015 
     FM191500 18013KT P6SM SCT025
       
KE38 181855Z AUTO 17011KT 10SM SCT048 27/17 A3015 RMK AO2 T02700165
KAMA 181853Z 22012KT 10SM CLR 28/15 A2999 RMK AO2 SLP108 T02780150
KAMA 181747Z 1818/1918 23010KT P6SM SKC 
     FM190100 20010KT P6SM VCTS SCT100CB 
     FM190400 28012KT P6SM FEW250 
     FM191200 36006KT P6SM SCT070
       
KE11 181855Z AUTO 18008G16KT 10SM SCT050 32/18 A3000 RMK AO2 T03230175
KLBX 181853Z AUTO 36003KT 10SM SCT043 BKN055 32/22 A2994 RMK AO2 SLP137 T03220222
KLBX 181720Z 1818/1918 19009KT P6SM FEW030 SCT045 SCT250 
     FM190200 VRB04KT P6SM FEW015 
     FM191400 20010KT P6SM SCT025
       
KGKY 181853Z VRB05KT 10SM CLR 32/18 A2990 RMK AO2 SLP116 T03170183
KGKY 181720Z 1818/1918 17008KT P6SM SCT250 
     FM190600 19010KT P6SM VCTS BKN050CB BKN250 
     FM190900 17012KT P6SM SCT040 BKN250 
     FM191400 20014G22KT P6SM SCT120 BKN250
       
KF44 181855Z AUTO 17004KT 10SM CLR 30/20 A2988 RMK AO2
KEDC 181855Z AUTO 21005KT 10SM CLR 32/21 A2994 RMK AO2
KAUS 181853Z 20005KT 10SM FEW046 FEW085 BKN250 33/22 A2993 RMK AO2 SLP122 T03280217
KAUS 181731Z 1818/1924 18008KT P6SM FEW060 BKN250 
     FM191000 19007KT P6SM BKN015 
     FM191400 19013KT P6SM SCT050
       
KDZB 181858Z AUTO 00000KT 10SM CLR 31/20 A2997 RMK AO2
KBYY 181855Z AUTO 28003KT 10SM SCT039 33/24 A2994 RMK AO2 T03340245
KBMT 181855Z AUTO 19004KT 10SM SCT037 BKN080 32/22 A2992 RMK AO2 T03170221
KBPT 181853Z 27007KT 10SM FEW040 FEW055 SCT070 33/21 A2991 RMK AO2 SLP129 T03280211 $
KBPT 181720Z 1818/1918 24010KT P6SM SCT035 
     FM190100 21005KT P6SM SCT025 
     TEMPO 1909/1913 00000KT 4SM BR 
     FM191500 21012KT P6SM SCT025 BKN035
       
KBEA 181900Z AUTO 14006KT 10SM SCT050 36/19 A2994 RMK AO2 T03610191
KBPG 181855Z AUTO 18014G18KT 7SM CLR 30/19 A3000 RMK AO2 T02970193
KF00 181855Z AUTO 00000KT 10SM SCT050 30/19 A2990 RMK AO2 P0001 T03000191
KBGD 181851Z AUTO 22009G19KT 10SM CLR 29/16 A2998 RMK AO2 SLP109 T02890156
K0F2 181855Z AUTO 21003KT 10SM CLR 31/18 A2993 RMK AO2 T03050182
KBBD 181855Z AUTO 19010KT 150V210 10SM CLR 28/20 A2997 RMK AO2
KBBD 181734Z 1818/1918 16011KT P6SM SCT050 SCT250 
     FM191500 20013G21KT P6SM FEW250
       
KBKD 181855Z AUTO 22013KT 7SM CLR 32/18 A2994 RMK AO2 T03150181
K11R 181855Z AUTO 21008KT 10SM CLR 31/23 A2990 RMK AO2 T03100233
KXBP 181855Z AUTO 16003KT 10SM CLR 29/19 A2994 RMK AO2 T02940185
KBRO 181853Z 13013KT 10SM SCT027 BKN035 BKN043 34/27 A2990 RMK AO2 SLP124 T03440267
KBRO 181720Z 1818/1918 14011G19KT P6SM FEW029 SCT035 SCT050 
     FM182100 14013KT P6SM FEW250 
     FM190300 15007KT P6SM SKC 
     FM191500 17014KT P6SM SCT250
       
KCFD 181855Z AUTO 20007KT 10SM CLR 32/23 A2990 RMK AO2 T03240226
KBMQ 181853Z AUTO VRB06KT 10SM CLR 30/19 A2998 RMK AO2 SLP133 T03000194
KRWV 181855Z AUTO 20012G16KT 10SM CLR 31/23 A2991 RMK AO2 T03140229
KT35 181855Z AUTO 22009G15KT 10SM CLR 32/22 A2990 RMK AO2 T03160218 PWINO
KHHF 181855Z AUTO 24009G15KT 10SM CLR 30/16 A2993 RMK AO2 T02960160
KCZT 181855Z AUTO 10010G17KT 10SM SCT055 36/21 A2991 RMK AO2
KCVB 181855Z AUTO 17006KT 10SM CLR 33/19 A2996 RMK AO2 T03250194
KF17 181855Z AUTO 00000KT 10SM 30/19 A2992 RMK AO2 T02990193
KCDS 181853Z AUTO 24012G16KT 10SM FEW055 31/17 A2996 RMK AO2 SLP115 T03110172
KCDS 181720Z 1818/1918 24015KT P6SM SCT040 SCT100 BKN250 
     FM190300 17008KT P6SM VCTS BKN050CB 
     FM190600 21015KT P6SM SCT250
       
KCPT 181855Z AUTO VRB04KT 10SM CLR 30/18 A2994 RMK AO2
K6R3 181855Z AUTO 22004KT 10SM CLR 33/23 A2992 RMK AO2 T03270227
KCOM 181855Z AUTO 19011G16KT 10SM CLR 29/20 A2997 RMK AO2 T02920195
KCLL 181853Z 18012KT 10SM CLR 32/22 A2988 RMK AO2 SLP112 T03220217
KCLL 181720Z 1818/1918 26007KT P6SM SCT040 
     FM190100 VRB04KT P6SM SKC 
     FM191400 20011KT P6SM SCT025 SCT250
       
K66R 181855Z AUTO 26006KT 10SM CLR 34/21 A2992 RMK AO2 T03420208
KMKN 181855Z AUTO 22008KT 10SM CLR 30/20 A2996 RMK AO2 T03010198
KCRP 181851Z 09009G17KT 10SM FEW030 SCT036 SCT250 34/25 A2994 RMK AO2 SLP137 T03390250
KCRP 181728Z 1818/1918 16007KT P6SM SCT025 
     FM182000 14014KT P6SM SCT040 
     FM190100 15009KT P6SM SCT010 
     FM191500 18013KT P6SM SCT025
       
KCRS 181853Z AUTO 14006KT 10SM CLR 31/21 A2992 RMK AO2 SLP126 T03060211
KCOT 181853Z AUTO 14009G18KT 10SM FEW065 37/18 A2992 RMK AO2 SLP123 T03670178
KCOT 181728Z 1818/1918 14006KT P6SM SCT035 
     FM182000 14013KT P6SM FEW080 
     FM190100 15008KT P6SM BKN250
       
KDKR 181855Z AUTO 14006KT 10SM 31/22 A2990 RMK AO2 PWINO
KDHT 181853Z AUTO VRB06KT 10SM SCT050 27/15 A2999 RMK AO2 SLP104 T02720150
KDHT 181747Z 1818/1918 24008KT P6SM FEW200 
     FM182100 20010KT P6SM VCTS FEW250CB 
     FM190000 04011KT P6SM SCT250 
     FM191200 35005KT P6SM FEW060
       
KADS 181852Z 21006KT 10SM FEW035 SCT240 32/17 A2991
KDFW 181853Z 18009KT 10SM FEW045 FEW210 SCT300 32/19 A2989 RMK AO2 SLP111 T03170189
KDFW 181720Z 1818/1924 19008KT P6SM SCT040 BKN250 
     FM190600 20010KT P6SM VCTS BKN050CB BKN250 
     FM190900 18012KT P6SM SCT040 BKN250 
     FM191500 21014G22KT P6SM SCT120 BKN250 
     FM192200 22015G25KT P6SM VCTS SCT050CB BKN120
       
KDAL 181853Z 16006KT 10SM FEW043 FEW180 BKN250 32/19 A2989 RMK AO2 SLP115 T03170189
KDAL 181720Z 1818/1918 17008KT P6SM SCT040 BKN250 
     FM190600 20010KT P6SM VCTS BKN050CB BKN250 
     FM191000 18012KT P6SM SCT040 BKN250 
     FM191500 22012G20KT P6SM SCT120 BKN250
       
KRBD 181853Z VRB05KT 10SM CLR 30/19 A2990
KLUD 181855Z AUTO 20005KT 10SM CLR 31/18 A2993 RMK AO2 T03100177
KDRT 181853Z AUTO 12007KT 10SM CLR 31/23 A2993 RMK AO2 PRESFR SLP118 T03060233
KDRT 181905Z 1819/1918 13008KT P6SM VCSH FEW060 BKN120 BKN250 
     FM190200 10008KT P6SM BKN250 
     FM191500 14012KT P6SM SCT250
       
K6R6 181853Z AUTO 12007G16KT 29/21 A2996 RMK AO1 SLP106 T02940206
KDUX 181855Z AUTO 21011G14KT 10SM SCT043 26/17 A3000 RMK AO2 T02640165
KELA 181855Z AUTO 26003KT 10SM SCT041 BKN049 BKN085 33/25 A2992 RMK AO2 T03300249
K5T9 181855Z AUTO VRB06KT 10SM FEW047 FEW055 33/22 A2994 RMK A01
KEBG 181855Z AUTO 13008KT 10SM SCT044 SCT050 SCT070 37/22 A2990 RMK AO2 T03670223
KBKS 181855Z AUTO 14006KT 10SM BKN055 36/21 A2991 RMK AO1 T03620207
KFST 181853Z AUTO 20012G17KT 10SM CLR 34/15 A2997 RMK AO2 SLP096 T03390150
KFST 181726Z 1818/1918 VRB04KT P6SM SKC 
     FM182000 16014G20KT P6SM SCT050 BKN250 
     FM190200 17015KT P6SM FEW300 
     FM190900 20010KT P6SM SKC
       
KAFW 181753Z VRB04KT 10SM FEW050 SCT120 BKN240 BKN300 31/19 A2991 RMK AO2 SLP112 60000 T03060194 10311 20217 51008
KAFW 181720Z 1818/1918 17008KT P6SM SCT060 BKN250 
     FM190400 19010KT P6SM VCTS BKN040CB BKN250 
     FM190900 17012KT P6SM SCT040 BKN250 
     FM191400 22012G20KT P6SM SCT120 BKN250
       
KFTW 181853Z 10SM CLR 31/17 A2990 RMK AO2 SLP116 T03110167
KFTW 181720Z 1818/1918 17008KT P6SM FEW050 SCT250 
     FM190400 19010KT P6SM VCTS BKN050CB BKN250 
     FM190900 18012KT P6SM SCT040 BKN250 
     FM191500 22014G22KT P6SM SCT120 BKN250
       
KFWS 181856Z 25003KT 10SM CLR 32/16 A2993
KT82 181855Z AUTO 20011G16KT 10SM CLR 30/20 A2999 RMK AO2 T02990196
KGLE 181855Z AUTO 00000KT 10SM CLR 31/19 A2992 RMK AO2 T03060192 PWINO
KGLS 181852Z 18009KT 10SM SCT030 31/24 A2994 RMK AO2 SLP138 T03110239
KGLS 181720Z 1818/1918 19007KT P6SM SCT025 
     FM182000 18010KT P6SM SCT035 
     FM191000 20011KT P6SM FEW025
       
KGOP 181855Z AUTO 21012G19KT 10SM FEW100 31/19 A2994 RMK AO2
KGTU 181856Z 20008KT 10SM CLR 31/21 A2995 RMK AO2 SLP135 T03110211
KGYB 181855Z AUTO 16006KT 10SM CLR 33/23 A2992 RMK AO2 T03250232
KJXI 181855Z AUTO 00000KT 10SM SCT043 BKN050 30/20 A2991 RMK AO2 T02970198
KT20 181855Z AUTO 18006KT 10SM CLR 33/24 A2991 RMK AO2 T03250241
KRPH 181850Z AUTO 27007KT 220V280 10SM CLR 30/21 A2992 RMK AO2 T03000205
KGDJ 181855Z AUTO 32004KT 10SM CLR 31/19 A2992 RMK AO2 T03140190
KGPM 181850Z 12004KT 10SM SKC 31/18 A2991
KGVT 181855Z AUTO 00000KT 10SM CLR 32/19 A2991 RMK AO2
KMNZ 181855Z AUTO 00000KT 10SM CLR 31/18 A2996 RMK AO2 T03100176
KHRL 181852Z 11016KT 10SM FEW027 SCT036 SCT045 34/27 A2990 RMK AO2 SLP123 T03390267
KHRL 181720Z 1818/1918 13010KT P6SM FEW028 
     FM182100 14012KT P6SM BKN250 
     FM190300 15006KT P6SM SKC 
     FM191500 17014KT P6SM SCT250
       
KLHB 181855Z AUTO 18008KT 10SM CLR 32/24 A2990 RMK AO2 T03160235
KHBV 181855Z AUTO 00000KT 10SM SCT050 35/20 A2994 RMK AO2 T03470195
KRFI 181855Z AUTO 21003KT 10SM SCT045 30/20 A2991 RMK AO2 T03040203
KHRX 181855Z AUTO 24008G15KT 10SM CLR 29/15 A3002 RMK AO2 T02910148
KINJ 181535Z AUTO 20011G15KT 10SM -RA SCT042 SCT055 BKN110 24/24 A2994 RMK AO2 T02430236
KHDO 181851Z AUTO 17013KT 10SM CLR 33/21 A2996 RMK AO2 SLP128 T03280211
KDWH 181853Z 21006KT 10SM FEW040 31/22 A2991 RMK AO2 SLP125 T03110222
KEFD 181850Z 27003KT 10SM SCT035 35/26 A2990
TAF KEFD 181200Z 1812/1918 VRB06KT 9999 FEW012 BKN025 QNH2988INS 
     BECMG 1814/1815 20006KT 9999 FEW030 QNH2981INS 
     BECMG 1905/1906 20006KT 8000 BR FEW010 BKN030 QNH2985INS 
     TEMPO 1906/1914 OVC010 
     BECMG 1914/1915 20010G15KT 9999 NSW FEW030 QNH2981INS TX32/1821Z TN24/1911Z
       
KIAH 181853Z 27007KT 10SM SCT036 SCT170 SCT250 32/22 A2991 RMK AO2 SLP126 T03220222
KIAH 181720Z 1818/1924 26007KT P6SM BKN035 
     FM182300 14007KT P6SM SCT060 
     FM191100 VRB04KT P6SM SCT025 
     FM191500 21010KT P6SM SCT035 BKN150 
     FM192000 18010KT P6SM FEW050 SCT250
       
KTME 181855Z AUTO 22008KT 10SM CLR 31/24 A2993 RMK AO2
KAXH 181855Z AUTO 26003KT 10SM SCT033 SCT050 SCT060 32/24 A2993 RMK AO2 T03150240
KCXO 181853Z 20003KT 10SM SCT045 32/21 A2991 RMK AO2 SLP124 T03170206
KCXO 181720Z 1818/1918 19005KT P6SM SCT035 SCT060 
     FM191300 20010KT P6SM BKN025 
     FM191600 21014KT P6SM SCT035
       
KLVJ 181853Z AUTO 23006KT 10SM SCT038 SCT049 BKN060 32/23 A2994 RMK AO2 SLP136 T03220228